createdAt,value
2017-08-26T00:00:06.214Z,0
2017-08-26T00:01:07.591Z,0
2017-08-26T00:02:08.966Z,0
2017-08-26T00:03:10.341Z,0
2017-08-26T00:04:11.717Z,0
2017-08-26T00:05:13.091Z,0
2017-08-26T00:06:14.464Z,0
2017-08-26T00:07:15.839Z,0
2017-08-26T00:08:17.214Z,0
2017-08-26T00:09:18.587Z,0
2017-08-26T00:10:19.965Z,0
2017-08-26T00:11:21.341Z,0
2017-08-26T00:12:22.716Z,0
2017-08-26T00:13:24.091Z,0
2017-08-26T00:14:25.467Z,0
2017-08-26T00:15:26.848Z,0
2017-08-26T00:16:28.218Z,0
2017-08-26T00:17:29.592Z,0
2017-08-26T00:18:30.967Z,0
2017-08-26T00:19:32.342Z,0
2017-08-26T00:20:33.718Z,0
2017-08-26T00:21:35.094Z,0
2017-08-26T00:22:36.468Z,0
2017-08-26T00:23:37.843Z,0
2017-08-26T00:24:39.224Z,0
2017-08-26T00:25:40.600Z,0
2017-08-26T00:26:41.973Z,0
2017-08-26T00:27:43.346Z,0
2017-08-26T00:28:44.721Z,0
2017-08-26T00:29:46.096Z,0
2017-08-26T00:30:47.472Z,0
2017-08-26T00:31:48.848Z,0
2017-08-26T00:32:50.225Z,0
2017-08-26T00:33:51.599Z,0
2017-08-26T00:34:52.973Z,0
2017-08-26T00:35:54.351Z,0
2017-08-26T00:36:55.721Z,0
2017-08-26T00:37:57.093Z,0
2017-08-26T00:38:58.470Z,0
2017-08-26T00:39:59.844Z,0
2017-08-26T00:41:01.219Z,0
2017-08-26T00:42:02.592Z,0
2017-08-26T00:43:03.967Z,0
2017-08-26T00:44:05.343Z,0
2017-08-26T00:45:06.719Z,0
2017-08-26T00:46:08.100Z,0
2017-08-26T00:47:09.476Z,0
2017-08-26T00:48:10.851Z,0
2017-08-26T00:49:12.224Z,0
2017-08-26T00:50:13.597Z,0
2017-08-26T00:51:14.973Z,0
2017-08-26T00:52:16.350Z,0
2017-08-26T00:53:17.724Z,0
2017-08-26T00:54:19.104Z,0
2017-08-26T00:55:20.488Z,0
2017-08-26T00:56:21.850Z,0
2017-08-26T00:57:23.225Z,0
2017-08-26T00:58:24.597Z,0
2017-08-26T00:59:25.970Z,0
2017-08-26T01:00:27.356Z,0
2017-08-26T01:01:28.727Z,0
2017-08-26T01:02:30.100Z,0
2017-08-26T01:03:31.476Z,0
2017-08-26T01:04:32.852Z,0
2017-08-26T01:05:34.226Z,0
2017-08-26T01:06:35.602Z,0
2017-08-26T01:07:36.977Z,0
2017-08-26T01:08:38.356Z,0
2017-08-26T01:09:39.730Z,0
2017-08-26T01:10:41.101Z,0
2017-08-26T01:11:42.477Z,0
2017-08-26T01:12:43.855Z,0
2017-08-26T01:13:45.229Z,0
2017-08-26T01:14:46.605Z,0
2017-08-26T01:15:47.982Z,0
2017-08-26T01:16:49.357Z,0
2017-08-26T01:17:50.730Z,0
2017-08-26T01:18:52.104Z,0
2017-08-26T01:19:53.481Z,0
2017-08-26T01:20:54.856Z,0
2017-08-26T01:21:56.237Z,0
2017-08-26T01:22:57.606Z,0
2017-08-26T01:23:58.980Z,0
2017-08-26T01:25:00.354Z,0
2017-08-26T01:26:01.729Z,0
2017-08-26T01:27:03.136Z,0
2017-08-26T01:28:04.485Z,0
2017-08-26T01:29:05.861Z,0
2017-08-26T01:30:07.235Z,0
2017-08-26T01:31:08.612Z,0
2017-08-26T01:32:09.989Z,0
2017-08-26T01:33:11.363Z,0
2017-08-26T01:34:12.739Z,0
2017-08-26T01:35:14.115Z,0
2017-08-26T01:36:15.490Z,0
2017-08-26T01:37:16.866Z,0
2017-08-26T01:38:18.239Z,0
2017-08-26T01:39:19.618Z,0
2017-08-26T01:40:20.991Z,0
2017-08-26T01:41:22.367Z,0
2017-08-26T01:42:23.742Z,0
2017-08-26T01:43:25.118Z,0
2017-08-26T01:44:26.497Z,0
2017-08-26T01:45:27.866Z,0
2017-08-26T01:46:29.242Z,0
2017-08-26T01:47:30.614Z,0
2017-08-26T01:48:31.987Z,0
2017-08-26T01:49:33.362Z,0
2017-08-26T01:50:34.738Z,0
2017-08-26T01:51:36.113Z,0
2017-08-26T01:52:37.491Z,0
2017-08-26T01:53:38.868Z,0
2017-08-26T01:54:40.239Z,0
2017-08-26T01:55:41.613Z,0
2017-08-26T01:56:42.987Z,0
2017-08-26T01:57:44.362Z,0
2017-08-26T01:58:45.739Z,0
2017-08-26T01:59:47.112Z,0
2017-08-26T02:00:48.485Z,0
2017-08-26T02:01:49.863Z,0
2017-08-26T02:02:51.238Z,0
2017-08-26T02:03:52.614Z,0
2017-08-26T02:04:53.988Z,0
2017-08-26T02:05:55.365Z,0
2017-08-26T02:06:56.742Z,0
2017-08-26T02:07:58.112Z,0
2017-08-26T02:08:59.491Z,0
2017-08-26T02:10:00.865Z,0
2017-08-26T02:11:02.241Z,0
2017-08-26T02:12:03.616Z,0
2017-08-26T02:13:04.989Z,0
2017-08-26T02:14:06.362Z,0
2017-08-26T02:15:07.735Z,0
2017-08-26T02:16:09.115Z,0
2017-08-26T02:17:10.490Z,0
2017-08-26T02:18:11.865Z,0
2017-08-26T02:19:13.245Z,0
2017-08-26T02:20:14.620Z,0
2017-08-26T02:21:15.995Z,0
2017-08-26T02:22:17.372Z,0
2017-08-26T02:23:18.756Z,0
2017-08-26T02:24:20.127Z,0
2017-08-26T02:25:21.503Z,0
2017-08-26T02:26:22.879Z,0
2017-08-26T02:27:24.258Z,0
2017-08-26T02:28:25.632Z,0
2017-08-26T02:29:27.006Z,0
2017-08-26T02:30:28.379Z,0
2017-08-26T02:31:29.753Z,0
2017-08-26T02:32:31.130Z,0
2017-08-26T02:33:32.503Z,0
2017-08-26T02:34:33.877Z,0
2017-08-26T02:35:35.252Z,0
2017-08-26T02:36:36.628Z,0
2017-08-26T02:37:38.000Z,0
2017-08-26T02:38:39.374Z,0
2017-08-26T02:39:40.747Z,0
2017-08-26T02:40:42.125Z,0
2017-08-26T02:41:43.503Z,0
2017-08-26T02:42:44.874Z,0
2017-08-26T02:43:46.254Z,0
2017-08-26T02:44:47.626Z,0
2017-08-26T02:45:49.000Z,0
2017-08-26T02:46:50.374Z,0
2017-08-26T02:47:51.750Z,0
2017-08-26T02:48:53.125Z,0
2017-08-26T02:49:54.500Z,0
2017-08-26T02:50:55.879Z,0
2017-08-26T02:51:57.249Z,0
2017-08-26T02:52:58.623Z,0
2017-08-26T02:54:00.005Z,0
2017-08-26T02:55:01.369Z,0
2017-08-26T02:56:02.745Z,0
2017-08-26T02:57:04.120Z,0
2017-08-26T02:58:05.490Z,0
2017-08-26T02:59:06.866Z,0
2017-08-26T03:00:08.241Z,0
2017-08-26T03:01:09.612Z,0
2017-08-26T03:02:10.988Z,0
2017-08-26T03:03:12.367Z,0
2017-08-26T03:04:13.737Z,0
2017-08-26T03:05:15.114Z,0
2017-08-26T03:06:16.487Z,0
2017-08-26T03:07:17.860Z,0
2017-08-26T03:08:19.250Z,0
2017-08-26T03:09:20.624Z,0
2017-08-26T03:10:22.000Z,0
2017-08-26T03:11:23.373Z,0
2017-08-26T03:12:24.747Z,0
2017-08-26T03:13:26.123Z,0
2017-08-26T03:14:27.501Z,0
2017-08-26T03:15:28.877Z,0
2017-08-26T03:16:30.250Z,0
2017-08-26T03:17:31.626Z,0
2017-08-26T03:18:33.001Z,0
2017-08-26T03:19:34.375Z,0
2017-08-26T03:20:35.747Z,0
2017-08-26T03:21:37.121Z,0
2017-08-26T03:22:38.502Z,0
2017-08-26T03:23:39.876Z,0
2017-08-26T03:24:41.252Z,0
2017-08-26T03:25:42.631Z,0
2017-08-26T03:26:44.008Z,0
2017-08-26T03:27:45.384Z,0
2017-08-26T03:28:46.760Z,0
2017-08-26T03:29:48.133Z,0
2017-08-26T03:30:49.506Z,0
2017-08-26T03:31:50.882Z,0
2017-08-26T03:32:52.258Z,0
2017-08-26T03:33:53.633Z,0
2017-08-26T03:34:55.006Z,0
2017-08-26T03:35:56.375Z,0
2017-08-26T03:36:57.752Z,0
2017-08-26T03:37:59.136Z,0
2017-08-26T03:39:00.509Z,0
2017-08-26T03:40:01.885Z,0
2017-08-26T03:41:03.261Z,0
2017-08-26T03:42:04.629Z,0
2017-08-26T03:43:06.003Z,0
2017-08-26T03:44:07.380Z,0
2017-08-26T03:45:08.754Z,0
2017-08-26T03:46:10.132Z,0
2017-08-26T03:47:11.504Z,0
2017-08-26T03:48:12.879Z,0
2017-08-26T03:49:14.251Z,0
2017-08-26T03:50:15.625Z,0
2017-08-26T03:51:16.995Z,0
2017-08-26T03:52:18.372Z,0
2017-08-26T03:53:19.747Z,0
2017-08-26T03:54:21.123Z,0
2017-08-26T03:55:22.495Z,0
2017-08-26T03:56:23.871Z,0
2017-08-26T03:57:25.246Z,0
2017-08-26T03:58:26.623Z,0
2017-08-26T03:59:28.000Z,4
2017-08-26T04:00:29.374Z,0
2017-08-26T04:01:30.747Z,0
2017-08-26T04:02:32.123Z,4
2017-08-26T04:03:33.501Z,4
2017-08-26T04:04:34.880Z,0
2017-08-26T04:05:36.252Z,4
2017-08-26T04:06:37.627Z,4
2017-08-26T04:07:39.006Z,8
2017-08-26T04:08:40.382Z,8
2017-08-26T04:09:41.751Z,8
2017-08-26T04:10:43.122Z,12
2017-08-26T04:11:44.511Z,12
2017-08-26T04:12:45.885Z,12
2017-08-26T04:13:47.263Z,16
2017-08-26T04:14:48.647Z,20
2017-08-26T04:15:50.021Z,24
2017-08-26T04:16:51.397Z,28
2017-08-26T04:17:52.769Z,32
2017-08-26T04:18:54.148Z,36
2017-08-26T04:19:55.524Z,44
2017-08-26T04:20:56.901Z,48
2017-08-26T04:21:58.280Z,52
2017-08-26T04:22:59.654Z,60
2017-08-26T04:24:01.033Z,60
2017-08-26T04:25:02.414Z,68
2017-08-26T04:26:03.785Z,68
2017-08-26T04:27:05.162Z,64
2017-08-26T04:28:06.538Z,56
2017-08-26T04:29:07.915Z,52
2017-08-26T04:30:09.295Z,48
2017-08-26T04:31:10.669Z,52
2017-08-26T04:32:12.042Z,52
2017-08-26T04:33:13.426Z,52
2017-08-26T04:34:14.806Z,48
2017-08-26T04:35:16.175Z,52
2017-08-26T04:36:17.552Z,52
2017-08-26T04:37:18.932Z,56
2017-08-26T04:38:20.302Z,56
2017-08-26T04:39:21.676Z,60
2017-08-26T04:40:23.058Z,64
2017-08-26T04:41:24.430Z,68
2017-08-26T04:42:25.831Z,68
2017-08-26T04:43:27.184Z,72
2017-08-26T04:44:28.559Z,84
2017-08-26T04:45:29.934Z,88
2017-08-26T04:46:31.312Z,100
2017-08-26T04:47:32.686Z,108
2017-08-26T04:48:34.062Z,112
2017-08-26T04:49:35.437Z,116
2017-08-26T04:50:36.816Z,120
2017-08-26T04:51:38.196Z,120
2017-08-26T04:52:39.571Z,124
2017-08-26T04:53:40.962Z,136
2017-08-26T04:54:42.327Z,148
2017-08-26T04:55:43.704Z,172
2017-08-26T04:56:45.084Z,196
2017-08-26T04:57:46.462Z,220
2017-08-26T04:58:47.840Z,236
2017-08-26T04:59:49.215Z,244
2017-08-26T05:00:50.592Z,252
2017-08-26T05:01:51.972Z,256
2017-08-26T05:02:53.358Z,268
2017-08-26T05:03:54.729Z,272
2017-08-26T05:04:56.111Z,272
2017-08-26T05:05:57.484Z,268
2017-08-26T05:06:58.864Z,272
2017-08-26T05:08:00.241Z,272
2017-08-26T05:09:01.616Z,288
2017-08-26T05:10:03.007Z,292
2017-08-26T05:11:04.389Z,296
2017-08-26T05:12:05.771Z,300
2017-08-26T05:13:07.146Z,300
2017-08-26T05:14:08.523Z,296
2017-08-26T05:15:09.904Z,296
2017-08-26T05:16:12.428Z,296
2017-08-26T05:17:13.805Z,300
2017-08-26T05:18:15.186Z,308
2017-08-26T05:19:16.565Z,320
2017-08-26T05:20:17.942Z,344
2017-08-26T05:21:19.319Z,372
2017-08-26T05:22:20.697Z,424
2017-08-26T05:23:22.076Z,480
2017-08-26T05:24:23.457Z,548
2017-08-26T05:25:24.838Z,608
2017-08-26T05:26:26.219Z,652
2017-08-26T05:27:27.597Z,688
2017-08-26T05:28:28.974Z,728
2017-08-26T05:29:30.351Z,780
2017-08-26T05:30:31.732Z,852
2017-08-26T05:31:33.108Z,920
2017-08-26T05:32:34.489Z,976
2017-08-26T05:33:35.869Z,1020
2017-08-26T05:34:37.247Z,1048
2017-08-26T05:35:38.629Z,1060
2017-08-26T05:36:40.007Z,1060
2017-08-26T05:37:41.384Z,1068
2017-08-26T05:38:42.764Z,1076
2017-08-26T05:39:44.144Z,1076
2017-08-26T05:40:45.523Z,1068
2017-08-26T05:41:46.904Z,1064
2017-08-26T05:42:48.277Z,1084
2017-08-26T05:43:49.661Z,1132
2017-08-26T05:44:51.040Z,1196
2017-08-26T05:45:52.423Z,1248
2017-08-26T05:46:53.799Z,1280
2017-08-26T05:47:55.181Z,1288
2017-08-26T05:48:56.559Z,1288
2017-08-26T05:49:57.937Z,1308
2017-08-26T05:50:59.328Z,1352
2017-08-26T05:52:00.707Z,1412
2017-08-26T05:53:02.088Z,1480
2017-08-26T05:54:03.470Z,1544
2017-08-26T05:55:04.850Z,1572
2017-08-26T05:56:06.228Z,1576
2017-08-26T05:57:07.611Z,1580
2017-08-26T05:58:08.993Z,1640
2017-08-26T05:59:10.370Z,1792
2017-08-26T06:00:11.753Z,1960
2017-08-26T06:01:13.142Z,2112
2017-08-26T06:02:14.512Z,2176
2017-08-26T06:03:15.893Z,2260
2017-08-26T06:04:17.271Z,2300
2017-08-26T06:05:18.662Z,2300
2017-08-26T06:06:20.044Z,2296
2017-08-26T06:07:21.424Z,2264
2017-08-26T06:08:22.807Z,2240
2017-08-26T06:09:24.195Z,2412
2017-08-26T06:10:25.578Z,2616
2017-08-26T06:11:26.955Z,2712
2017-08-26T06:12:28.339Z,2780
2017-08-26T06:13:29.721Z,2956
2017-08-26T06:14:31.102Z,2948
2017-08-26T06:15:32.484Z,3048
2017-08-26T06:16:33.876Z,3248
2017-08-26T06:17:35.255Z,3468
2017-08-26T06:18:36.638Z,3732
2017-08-26T06:19:38.033Z,4028
2017-08-26T06:20:39.400Z,4284
2017-08-26T06:21:40.779Z,4464
2017-08-26T06:22:42.161Z,4540
2017-08-26T06:23:43.544Z,4548
2017-08-26T06:24:44.925Z,4564
2017-08-26T06:25:46.307Z,4592
2017-08-26T06:26:47.687Z,4736
2017-08-26T06:27:49.075Z,4928
2017-08-26T06:28:50.460Z,5100
2017-08-26T06:29:51.841Z,5244
2017-08-26T06:30:53.225Z,5524
2017-08-26T06:31:54.606Z,5932
2017-08-26T06:32:55.985Z,6200
2017-08-26T06:33:57.367Z,6368
2017-08-26T06:34:58.749Z,6392
2017-08-26T06:36:00.132Z,6400
2017-08-26T06:37:01.515Z,6380
2017-08-26T06:38:02.896Z,6248
2017-08-26T06:39:04.280Z,6308
2017-08-26T06:40:05.664Z,6548
2017-08-26T06:41:07.047Z,6640
2017-08-26T06:42:08.437Z,6740
2017-08-26T06:43:09.818Z,6984
2017-08-26T06:44:11.204Z,7344
2017-08-26T06:45:12.586Z,7760
2017-08-26T06:46:13.978Z,8284
2017-08-26T06:47:15.363Z,9916
2017-08-26T06:48:16.742Z,8552
2017-08-26T06:49:18.124Z,8588
2017-08-26T06:50:19.504Z,9008
2017-08-26T06:51:20.890Z,9852
2017-08-26T06:52:22.273Z,9556
2017-08-26T06:53:23.653Z,9804
2017-08-26T06:54:25.038Z,11260
2017-08-26T06:55:26.428Z,11392
2017-08-26T06:56:27.805Z,11396
2017-08-26T06:57:29.188Z,11528
2017-08-26T06:58:30.576Z,11364
2017-08-26T06:59:31.962Z,11404
2017-08-26T07:00:33.345Z,10320
2017-08-26T07:01:34.728Z,11104
2017-08-26T07:02:36.112Z,12488
2017-08-26T07:03:37.500Z,12944
2017-08-26T07:04:38.897Z,13264
2017-08-26T07:05:40.284Z,13520
2017-08-26T07:06:41.667Z,13796
2017-08-26T07:07:43.054Z,14152
2017-08-26T07:08:44.437Z,14320
2017-08-26T07:09:45.820Z,14392
2017-08-26T07:10:47.212Z,14640
2017-08-26T07:11:48.594Z,14736
2017-08-26T07:12:49.983Z,15040
2017-08-26T07:13:51.372Z,15424
2017-08-26T07:14:52.767Z,15808
2017-08-26T07:15:54.143Z,16096
2017-08-26T07:16:55.527Z,16320
2017-08-26T07:17:56.917Z,15488
2017-08-26T07:18:58.304Z,12924
2017-08-26T07:19:59.695Z,13972
2017-08-26T07:21:01.082Z,15136
2017-08-26T07:22:02.468Z,14024
2017-08-26T07:23:03.854Z,16544
2017-08-26T07:24:05.243Z,16672
2017-08-26T07:25:06.631Z,13292
2017-08-26T07:26:08.018Z,13724
2017-08-26T07:27:09.407Z,16352
2017-08-26T07:28:10.797Z,24832
2017-08-26T07:29:12.186Z,26528
2017-08-26T07:30:13.583Z,22432
2017-08-26T07:31:14.973Z,18304
2017-08-26T07:32:16.358Z,17824
2017-08-26T07:33:17.747Z,16384
2017-08-26T07:34:19.135Z,16992
2017-08-26T07:35:20.528Z,17312
2017-08-26T07:36:21.914Z,19776
2017-08-26T07:37:23.307Z,20352
2017-08-26T07:38:24.696Z,21824
2017-08-26T07:39:26.087Z,22304
2017-08-26T07:40:27.478Z,22144
2017-08-26T07:41:28.871Z,21440
2017-08-26T07:42:30.271Z,20864
2017-08-26T07:43:31.655Z,19712
2017-08-26T07:44:33.043Z,20128
2017-08-26T07:45:34.431Z,19808
2017-08-26T07:46:35.822Z,17056
2017-08-26T07:47:37.212Z,20064
2017-08-26T07:48:38.601Z,20704
2017-08-26T07:49:39.995Z,18368
2017-08-26T07:50:41.384Z,17664
2017-08-26T07:51:42.774Z,19040
2017-08-26T07:52:44.170Z,19104
2017-08-26T07:53:45.554Z,17184
2017-08-26T07:54:46.946Z,17344
2017-08-26T07:55:48.335Z,17728
2017-08-26T07:56:49.733Z,18048
2017-08-26T07:57:51.123Z,18720
2017-08-26T07:58:52.511Z,17344
2017-08-26T07:59:53.906Z,17184
2017-08-26T08:00:55.296Z,16672
2017-08-26T08:01:56.688Z,16864
2017-08-26T08:02:58.082Z,17408
2017-08-26T08:03:59.473Z,18464
2017-08-26T08:05:00.863Z,17312
2017-08-26T08:06:02.253Z,17248
2017-08-26T08:07:03.649Z,16480
2017-08-26T08:08:05.041Z,16160
2017-08-26T08:09:06.431Z,15872
2017-08-26T08:10:07.824Z,15712
2017-08-26T08:11:09.214Z,15776
2017-08-26T08:12:10.607Z,15712
2017-08-26T08:13:12.009Z,15680
2017-08-26T08:14:13.399Z,15332
2017-08-26T08:15:14.788Z,14704
2017-08-26T08:16:16.180Z,13900
2017-08-26T08:17:17.574Z,13256
2017-08-26T08:18:18.967Z,12824
2017-08-26T08:19:20.356Z,12592
2017-08-26T08:20:21.746Z,12648
2017-08-26T08:22:04.181Z,13020
2017-08-26T08:23:05.566Z,13192
2017-08-26T08:24:06.954Z,13320
2017-08-26T08:25:08.347Z,13540
2017-08-26T08:26:09.911Z,13504
2017-08-26T08:27:11.302Z,13684
2017-08-26T08:28:12.692Z,13852
2017-08-26T08:29:14.092Z,13992
2017-08-26T08:30:15.474Z,14164
2017-08-26T08:31:16.862Z,14224
2017-08-26T08:32:18.249Z,14364
2017-08-26T08:33:19.636Z,14440
2017-08-26T08:34:21.037Z,14156
2017-08-26T08:35:22.426Z,13872
2017-08-26T08:36:23.937Z,14000
2017-08-26T08:37:25.318Z,13512
2017-08-26T08:39:06.201Z,13296
2017-08-26T08:40:07.646Z,13420
2017-08-26T08:41:30.672Z,13652
2017-08-26T08:42:32.059Z,13924
2017-08-26T08:43:33.453Z,14248
2017-08-26T08:44:34.858Z,14536
2017-08-26T08:45:36.248Z,14960
2017-08-26T08:46:37.636Z,15520
2017-08-26T08:47:39.032Z,16128
2017-08-26T08:48:40.420Z,16864
2017-08-26T08:49:41.834Z,17408
2017-08-26T08:50:43.193Z,17920
2017-08-26T08:51:44.582Z,17792
2017-08-26T08:52:45.969Z,17984
2017-08-26T08:54:28.350Z,18848
2017-08-26T08:55:29.735Z,18848
2017-08-26T08:56:31.122Z,19296
2017-08-26T08:57:32.512Z,22048
2017-08-26T08:58:33.902Z,18976
2017-08-26T08:59:35.290Z,18688
2017-08-26T09:00:36.678Z,18528
2017-08-26T09:01:38.069Z,18336
2017-08-26T09:02:39.456Z,18176
2017-08-26T09:03:40.841Z,17792
2017-08-26T09:04:42.275Z,17440
2017-08-26T09:05:43.663Z,17120
2017-08-26T09:06:45.062Z,16736
2017-08-26T09:07:46.439Z,16704
2017-08-26T09:08:47.828Z,17024
2017-08-26T09:09:49.216Z,17536
2017-08-26T09:10:50.603Z,18144
2017-08-26T09:11:51.992Z,18720
2017-08-26T09:12:53.387Z,19232
2017-08-26T09:13:54.774Z,19616
2017-08-26T09:14:56.166Z,19680
2017-08-26T09:15:57.556Z,19840
2017-08-26T09:16:58.945Z,20064
2017-08-26T09:18:00.335Z,20960
2017-08-26T09:19:01.722Z,22048
2017-08-26T09:20:03.117Z,22336
2017-08-26T09:21:04.511Z,22560
2017-08-26T09:22:05.893Z,22720
2017-08-26T09:23:07.284Z,22656
2017-08-26T09:24:08.676Z,23040
2017-08-26T09:25:10.066Z,24768
2017-08-26T09:26:11.449Z,23872
2017-08-26T09:27:12.850Z,24928
2017-08-26T09:28:14.238Z,26208
2017-08-26T09:29:15.650Z,26560
2017-08-26T09:30:17.029Z,26240
2017-08-26T09:31:18.417Z,25824
2017-08-26T09:32:19.807Z,26048
2017-08-26T09:33:21.194Z,26592
2017-08-26T09:34:22.590Z,27488
2017-08-26T09:35:23.978Z,41472
2017-08-26T09:36:25.370Z,39072
2017-08-26T09:37:26.766Z,32416
2017-08-26T09:38:28.157Z,49760
2017-08-26T09:39:29.555Z,37888
2017-08-26T09:40:30.936Z,34976
2017-08-26T09:41:32.377Z,32064
2017-08-26T09:42:33.774Z,37984
2017-08-26T09:43:35.173Z,38432
2017-08-26T09:44:36.570Z,56576
2017-08-26T09:45:37.961Z,46112
2017-08-26T09:46:39.352Z,52352
2017-08-26T09:47:40.745Z,49440
2017-08-26T09:48:42.138Z,54112
2017-08-26T09:49:43.542Z,44512
2017-08-26T09:50:44.937Z,38720
2017-08-26T09:51:46.330Z,37376
2017-08-26T09:52:47.723Z,39264
2017-08-26T09:53:49.132Z,51744
2017-08-26T09:54:50.525Z,52064
2017-08-26T09:55:51.921Z,54528
2017-08-26T09:56:53.318Z,52192
2017-08-26T09:57:54.716Z,30752
2017-08-26T09:58:56.113Z,37152
2017-08-26T09:59:57.507Z,36992
2017-08-26T10:00:58.900Z,24608
2017-08-26T10:02:00.298Z,25344
2017-08-26T10:03:01.697Z,35424
2017-08-26T10:04:03.086Z,27616
2017-08-26T10:05:04.534Z,22720
2017-08-26T10:06:05.930Z,19680
2017-08-26T10:07:07.324Z,18112
2017-08-26T10:08:08.738Z,17312
2017-08-26T10:09:10.110Z,18816
2017-08-26T10:10:11.503Z,22976
2017-08-26T10:11:12.898Z,27648
2017-08-26T10:12:14.293Z,26752
2017-08-26T10:13:15.687Z,23552
2017-08-26T10:14:17.078Z,21088
2017-08-26T10:15:18.470Z,20992
2017-08-26T10:16:19.864Z,21696
2017-08-26T10:17:21.313Z,21152
2017-08-26T10:18:22.709Z,19936
2017-08-26T10:19:24.117Z,18784
2017-08-26T10:20:25.513Z,20864
2017-08-26T10:21:26.906Z,21216
2017-08-26T10:22:28.299Z,16000
2017-08-26T10:23:29.692Z,11364
2017-08-26T10:24:31.088Z,8644
2017-08-26T10:25:32.475Z,6920
2017-08-26T10:26:33.873Z,6072
2017-08-26T10:27:35.264Z,5704
2017-08-26T10:28:36.651Z,5756
2017-08-26T10:29:38.038Z,5664
2017-08-26T10:31:19.432Z,6972
2017-08-26T10:32:20.819Z,8440
2017-08-26T10:33:22.208Z,8604
2017-08-26T10:34:23.599Z,7964
2017-08-26T10:35:24.990Z,7080
2017-08-26T10:36:26.379Z,6336
2017-08-26T10:37:27.766Z,6288
2017-08-26T10:38:29.156Z,6516
2017-08-26T10:39:30.546Z,6780
2017-08-26T10:40:31.931Z,6856
2017-08-26T10:41:33.318Z,6836
2017-08-26T10:42:34.708Z,7128
2017-08-26T10:43:36.093Z,7648
2017-08-26T10:44:37.483Z,7780
2017-08-26T10:45:38.868Z,7944
2017-08-26T10:47:21.241Z,8632
2017-08-26T10:48:22.623Z,8736
2017-08-26T10:49:24.013Z,8456
2017-08-26T10:50:25.434Z,7888
2017-08-26T10:51:26.828Z,7388
2017-08-26T10:52:28.212Z,7316
2017-08-26T10:53:29.620Z,7304
2017-08-26T10:54:31.011Z,7256
2017-08-26T10:55:32.398Z,7268
2017-08-26T10:56:33.789Z,7724
2017-08-26T10:57:35.180Z,8120
2017-08-26T10:58:36.572Z,7880
2017-08-26T10:59:37.968Z,7744
2017-08-26T11:00:39.352Z,7516
2017-08-26T11:01:40.739Z,7408
2017-08-26T11:02:42.123Z,6988
2017-08-26T11:03:43.506Z,6808
2017-08-26T11:04:44.893Z,6792
2017-08-26T11:05:46.279Z,6752
2017-08-26T11:06:47.665Z,6120
2017-08-26T11:07:49.051Z,4892
2017-08-26T11:08:50.462Z,4064
2017-08-26T11:09:51.822Z,3812
2017-08-26T11:10:53.205Z,3944
2017-08-26T11:11:54.602Z,4572
2017-08-26T11:12:55.988Z,5328
2017-08-26T11:13:57.373Z,5960
2017-08-26T11:14:58.772Z,7008
2017-08-26T11:16:00.154Z,7956
2017-08-26T11:17:01.540Z,8252
2017-08-26T11:18:02.939Z,8956
2017-08-26T11:19:04.337Z,9676
2017-08-26T11:20:05.724Z,8968
2017-08-26T11:21:07.109Z,8132
2017-08-26T11:22:08.497Z,7992
2017-08-26T11:23:09.887Z,9220
2017-08-26T11:24:11.266Z,11284
2017-08-26T11:25:12.660Z,13792
2017-08-26T11:26:14.046Z,17120
2017-08-26T11:27:15.429Z,17568
2017-08-26T11:28:16.826Z,16896
2017-08-26T11:29:18.222Z,15904
2017-08-26T11:30:19.636Z,14864
2017-08-26T11:31:21.020Z,15936
2017-08-26T11:32:22.409Z,44896
2017-08-26T11:33:23.797Z,44864
2017-08-26T11:34:25.184Z,41504
2017-08-26T11:35:26.573Z,23008
2017-08-26T11:36:27.962Z,16672
2017-08-26T11:37:29.355Z,13248
2017-08-26T11:38:30.761Z,11384
2017-08-26T11:39:32.224Z,10540
2017-08-26T11:40:33.613Z,11384
2017-08-26T11:41:35.005Z,14128
2017-08-26T11:42:36.419Z,17632
2017-08-26T11:43:37.810Z,21024
2017-08-26T11:44:39.207Z,26560
2017-08-26T11:45:40.595Z,41120
2017-08-26T11:46:41.980Z,53280
2017-08-26T11:47:43.372Z,54144
2017-08-26T11:48:44.755Z,60704
2017-08-26T11:49:46.155Z,64832
2017-08-26T11:50:47.545Z,46112
2017-08-26T11:51:48.941Z,61312
2017-08-26T11:52:50.330Z,52352
2017-08-26T11:53:51.724Z,43008
2017-08-26T11:54:53.114Z,28256
2017-08-26T11:56:35.513Z,20896
2017-08-26T11:57:36.903Z,19904
2017-08-26T11:58:38.294Z,21216
2017-08-26T11:59:39.717Z,32640
2017-08-26T12:00:41.110Z,35680
2017-08-26T12:01:42.501Z,24064
2017-08-26T12:02:43.900Z,22624
2017-08-26T12:03:45.294Z,24704
2017-08-26T12:04:46.690Z,27616
2017-08-26T12:05:48.083Z,25824
2017-08-26T12:06:49.501Z,39168
2017-08-26T12:07:50.869Z,42048
2017-08-26T12:08:52.264Z,32320
2017-08-26T12:09:53.663Z,27424
2017-08-26T12:10:55.054Z,23328
2017-08-26T12:12:37.439Z,25856
2017-08-26T12:13:38.842Z,45728
2017-08-26T12:14:40.223Z,39680
2017-08-26T12:15:41.615Z,49184
2017-08-26T12:16:43.007Z,48608
2017-08-26T12:17:44.405Z,29152
2017-08-26T12:18:45.798Z,25152
2017-08-26T12:19:47.195Z,20096
2017-08-26T12:20:48.584Z,17056
2017-08-26T12:21:49.975Z,13664
2017-08-26T12:22:51.370Z,12548
2017-08-26T12:23:52.760Z,12432
2017-08-26T12:24:54.153Z,18752
2017-08-26T12:25:55.548Z,22048
2017-08-26T12:26:56.947Z,19104
2017-08-26T12:27:58.337Z,22688
2017-08-26T12:28:59.729Z,24320
2017-08-26T12:30:01.124Z,22080
2017-08-26T12:31:02.518Z,18816
2017-08-26T12:32:03.905Z,18304
2017-08-26T12:33:05.297Z,18080
2017-08-26T12:34:06.689Z,17632
2017-08-26T12:35:08.093Z,21152
2017-08-26T12:36:09.472Z,38048
2017-08-26T12:37:10.865Z,53088
2017-08-26T12:38:12.259Z,57280
2017-08-26T12:39:13.652Z,56768
2017-08-26T12:40:15.050Z,56416
2017-08-26T12:41:16.441Z,50496
2017-08-26T12:42:17.841Z,50208
2017-08-26T12:43:19.237Z,41696
2017-08-26T12:45:02.384Z,17824
2017-08-26T12:46:03.782Z,12752
2017-08-26T12:47:05.173Z,9560
2017-08-26T12:48:06.566Z,8044
2017-08-26T12:49:07.960Z,7680
2017-08-26T12:50:09.369Z,8664
2017-08-26T12:51:10.746Z,9840
2017-08-26T12:52:12.140Z,12448
2017-08-26T12:53:13.529Z,16736
2017-08-26T12:54:14.919Z,16032
2017-08-26T12:55:16.314Z,12852
2017-08-26T12:56:17.703Z,9676
2017-08-26T12:57:19.097Z,7468
2017-08-26T12:58:20.488Z,6044
2017-08-26T12:59:21.878Z,6148
2017-08-26T13:00:23.269Z,7256
2017-08-26T13:01:24.655Z,8168
2017-08-26T13:02:26.045Z,8896
2017-08-26T13:03:27.437Z,9640
2017-08-26T13:04:28.834Z,9364
2017-08-26T13:05:30.224Z,8728
2017-08-26T13:06:31.614Z,8284
2017-08-26T13:07:33.003Z,8248
2017-08-26T13:08:34.390Z,8148
2017-08-26T13:09:35.777Z,7492
2017-08-26T13:10:37.167Z,6908
2017-08-26T13:11:38.564Z,6304
2017-08-26T13:12:39.948Z,5908
2017-08-26T13:13:41.337Z,5436
2017-08-26T13:14:42.727Z,5188
2017-08-26T13:16:24.101Z,5796
2017-08-26T13:17:25.489Z,7656
2017-08-26T13:18:26.876Z,10720
2017-08-26T13:19:28.269Z,19456
2017-08-26T13:20:29.654Z,29472
2017-08-26T13:21:31.042Z,32320
2017-08-26T13:22:32.435Z,35072
2017-08-26T13:23:33.824Z,34304
2017-08-26T13:24:35.212Z,28768
2017-08-26T13:25:36.600Z,25888
2017-08-26T13:26:37.990Z,24384
2017-08-26T13:27:39.378Z,22336
2017-08-26T13:28:40.767Z,19744
2017-08-26T13:29:42.158Z,17280
2017-08-26T13:30:43.551Z,15732
2017-08-26T13:31:44.961Z,15000
2017-08-26T13:32:46.373Z,15472
2017-08-26T13:33:47.734Z,21024
2017-08-26T13:34:49.125Z,19200
2017-08-26T13:35:50.515Z,26528
2017-08-26T13:36:51.903Z,20160
2017-08-26T13:37:53.294Z,18176
2017-08-26T13:38:54.689Z,17344
2017-08-26T13:39:56.068Z,17440
2017-08-26T13:40:57.458Z,27680
2017-08-26T13:41:58.850Z,28448
2017-08-26T13:43:00.241Z,32160
2017-08-26T13:44:01.634Z,31968
2017-08-26T13:45:03.022Z,30848
2017-08-26T13:46:04.423Z,26752
2017-08-26T13:47:05.803Z,29280
2017-08-26T13:48:48.199Z,28992
2017-08-26T13:49:49.595Z,27488
2017-08-26T13:50:50.983Z,22784
2017-08-26T13:51:52.375Z,22432
2017-08-26T13:52:53.770Z,26720
2017-08-26T13:53:55.155Z,26624
2017-08-26T13:54:56.548Z,24160
2017-08-26T13:55:57.942Z,22432
2017-08-26T13:56:59.331Z,21728
2017-08-26T13:58:00.723Z,24960
2017-08-26T13:59:02.113Z,26848
2017-08-26T14:00:03.511Z,25920
2017-08-26T14:01:04.900Z,23584